createdAt,value
2022-11-23T00:00:34.351Z,8.81
2022-11-23T00:01:56.702Z,9.07
2022-11-23T00:02:59.811Z,8.87
2022-11-23T00:04:05.940Z,8.38
2022-11-23T00:05:09.301Z,7.81
2022-11-23T00:06:11.346Z,7.32
2022-11-23T00:07:13.771Z,6.89
2022-11-23T00:08:15.643Z,6.52
2022-11-23T00:09:17.990Z,6.23
2022-11-23T00:10:20.027Z,6.23
2022-11-23T00:11:25.024Z,6.61
2022-11-23T00:12:26.914Z,7.14
2022-11-23T00:13:29.041Z,7.65
2022-11-23T00:14:31.333Z,8.08
2022-11-23T00:15:33.575Z,8.44
2022-11-23T00:16:35.996Z,8.73
2022-11-23T00:17:38.147Z,8.99
2022-11-23T00:18:40.187Z,9.07
2022-11-23T00:19:41.944Z,8.76
2022-11-23T00:20:44.891Z,8.25
2022-11-23T00:21:46.651Z,7.71
2022-11-23T00:22:48.463Z,7.22
2022-11-23T00:23:50.762Z,6.79
2022-11-23T00:24:52.573Z,6.41
2022-11-23T00:25:54.320Z,6.08
2022-11-23T00:26:56.089Z,5.84
2022-11-23T00:27:57.929Z,5.99
2022-11-23T00:28:59.829Z,6.43
2022-11-23T00:30:04.503Z,6.94
2022-11-23T00:31:07.576Z,7.45
2022-11-23T00:32:09.451Z,7.87
2022-11-23T00:33:12.361Z,8.24
2022-11-23T00:34:15.702Z,8.55
2022-11-23T00:35:17.515Z,8.81
2022-11-23T00:36:20.896Z,8.99
2022-11-23T00:37:22.622Z,8.88
2022-11-23T00:38:24.361Z,8.46
2022-11-23T00:39:26.493Z,7.91
2022-11-23T00:40:28.277Z,7.38
2022-11-23T00:41:30.193Z,6.91
2022-11-23T00:42:36.642Z,6.49
2022-11-23T00:43:40.684Z,6.10
2022-11-23T00:44:42.610Z,5.80
2022-11-23T00:45:44.450Z,5.82
2022-11-23T00:46:46.334Z,6.20
2022-11-23T00:47:48.092Z,6.73
2022-11-23T00:48:52.215Z,7.23
2022-11-23T00:49:54.307Z,7.69
2022-11-23T00:50:56.064Z,8.07
2022-11-23T00:51:57.825Z,8.40
2022-11-23T00:53:00.020Z,8.67
2022-11-23T00:54:03.821Z,8.89
2022-11-23T00:55:05.971Z,8.78
2022-11-23T00:56:07.938Z,8.34
2022-11-23T00:57:09.835Z,7.80
2022-11-23T00:58:11.549Z,7.30
2022-11-23T00:59:13.283Z,6.85
2022-11-23T01:00:16.619Z,6.47
2022-11-23T01:01:22.056Z,6.13
2022-11-23T01:02:23.973Z,5.83
2022-11-23T01:03:26.100Z,5.86
2022-11-23T01:04:29.138Z,6.24
2022-11-23T01:05:36.674Z,6.78
2022-11-23T01:06:40.316Z,7.31
2022-11-23T01:07:42.368Z,7.76
2022-11-23T01:08:52.711Z,8.10
2022-11-23T01:09:54.514Z,8.44
2022-11-23T01:11:02.061Z,8.69
2022-11-23T01:12:03.876Z,8.84
2022-11-23T01:13:05.636Z,8.59
2022-11-23T01:14:07.985Z,8.09
2022-11-23T01:15:09.893Z,7.53
2022-11-23T01:16:30.133Z,7.03
2022-11-23T01:17:31.841Z,6.46
2022-11-23T01:18:33.606Z,6.09
2022-11-23T01:19:36.102Z,5.76
2022-11-23T01:20:37.967Z,5.55
2022-11-23T01:21:39.988Z,5.76
2022-11-23T01:22:42.010Z,6.23
2022-11-23T01:23:44.236Z,6.76
2022-11-23T01:24:46.098Z,7.26
2022-11-23T01:25:49.260Z,7.70
2022-11-23T01:26:54.518Z,8.08
2022-11-23T01:27:56.346Z,8.37
2022-11-23T01:28:58.178Z,8.61
2022-11-23T01:30:00.046Z,8.73
2022-11-23T01:31:16.242Z,8.48
2022-11-23T01:32:19.799Z,7.86
2022-11-23T01:33:21.515Z,7.36
2022-11-23T01:34:23.223Z,6.90
2022-11-23T01:35:25.262Z,6.49
2022-11-23T01:36:30.781Z,6.14
2022-11-23T01:37:32.595Z,5.82
2022-11-23T01:38:34.716Z,5.70
2022-11-23T01:39:36.449Z,6.01
2022-11-23T01:40:44.039Z,6.52
2022-11-23T01:41:45.968Z,7.09
2022-11-23T01:42:58.221Z,7.57
2022-11-23T01:44:00.452Z,8.04
2022-11-23T01:45:40.546Z,8.39
2022-11-23T01:46:42.296Z,8.79
2022-11-23T01:47:44.263Z,8.58
2022-11-23T01:49:04.472Z,8.10
2022-11-23T01:50:06.652Z,7.44
2022-11-23T01:51:23.355Z,6.99
2022-11-23T01:52:26.794Z,6.49
2022-11-23T01:53:31.691Z,6.13
2022-11-23T01:54:45.499Z,5.81
2022-11-23T01:55:49.598Z,5.64
2022-11-23T01:56:58.832Z,5.99
2022-11-23T01:58:02.231Z,6.58
2022-11-23T01:59:11.673Z,7.16
2022-11-23T02:00:14.038Z,7.72
2022-11-23T02:01:16.524Z,8.15
2022-11-23T02:02:19.488Z,8.54
2022-11-23T02:03:22.963Z,8.82
2022-11-23T02:04:33.011Z,8.81
2022-11-23T02:05:41.571Z,8.38
2022-11-23T02:06:47.433Z,7.81
2022-11-23T02:07:51.318Z,7.30
2022-11-23T02:08:54.093Z,6.86
2022-11-23T02:09:56.111Z,6.49
2022-11-23T02:10:59.576Z,6.17
2022-11-23T02:12:01.383Z,5.90
2022-11-23T02:13:11.338Z,5.87
2022-11-23T02:14:15.169Z,6.30
2022-11-23T02:15:18.629Z,6.90
2022-11-23T02:16:20.451Z,7.46
2022-11-23T02:17:22.337Z,7.94
2022-11-23T02:18:30.453Z,8.37
2022-11-23T02:19:56.071Z,8.74
2022-11-23T02:21:03.739Z,8.80
2022-11-23T02:22:14.496Z,8.37
2022-11-23T02:23:25.057Z,7.79
2022-11-23T02:24:35.649Z,7.25
2022-11-23T02:25:43.163Z,6.77
2022-11-23T02:26:45.255Z,6.36
2022-11-23T02:27:47.839Z,6.05
2022-11-23T02:29:14.431Z,5.75
2022-11-23T02:30:16.167Z,5.63
2022-11-23T02:31:18.014Z,6.01
2022-11-23T02:32:24.279Z,6.55
2022-11-23T02:33:30.592Z,7.16
2022-11-23T02:34:32.549Z,7.64
2022-11-23T02:35:34.917Z,8.07
2022-11-23T02:36:40.616Z,8.40
2022-11-23T02:37:43.874Z,8.70
2022-11-23T02:38:45.699Z,8.80
2022-11-23T02:39:53.375Z,8.52
2022-11-23T02:40:55.432Z,7.96
2022-11-23T02:41:58.877Z,7.45
2022-11-23T02:43:01.966Z,6.95
2022-11-23T02:44:09.141Z,6.53
2022-11-23T02:45:41.391Z,6.16
2022-11-23T02:46:43.579Z,5.76
2022-11-23T02:47:45.810Z,5.92
2022-11-23T02:48:47.578Z,6.37
2022-11-23T02:49:49.965Z,6.94
2022-11-23T02:50:52.637Z,7.49
2022-11-23T02:51:54.564Z,7.94
2022-11-23T02:52:59.332Z,8.34
2022-11-23T02:54:01.047Z,8.65
2022-11-23T02:55:02.810Z,8.85
2022-11-23T02:56:05.322Z,8.67
2022-11-23T02:57:08.038Z,8.22
2022-11-23T02:58:09.825Z,7.71
2022-11-23T02:59:11.660Z,7.22
2022-11-23T03:00:13.975Z,6.80
2022-11-23T03:01:17.252Z,6.44
2022-11-23T03:02:21.381Z,6.14
2022-11-23T03:03:23.130Z,5.94
2022-11-23T03:04:27.947Z,6.12
2022-11-23T03:05:30.719Z,6.66
2022-11-23T03:06:32.581Z,7.23
2022-11-23T03:07:34.787Z,7.77
2022-11-23T03:08:36.568Z,8.25
2022-11-23T03:09:38.450Z,8.64
2022-11-23T03:10:40.684Z,8.95
2022-11-23T03:11:42.999Z,8.96
2022-11-23T03:12:45.061Z,8.61
2022-11-23T03:13:48.239Z,8.11
2022-11-23T03:14:50.613Z,7.62
2022-11-23T03:15:56.842Z,7.19
2022-11-23T03:17:01.632Z,6.77
2022-11-23T03:18:06.584Z,6.42
2022-11-23T03:19:08.529Z,6.14
2022-11-23T03:20:10.923Z,6.06
2022-11-23T03:21:14.841Z,6.40
2022-11-23T03:22:16.769Z,6.94
2022-11-23T03:23:18.552Z,7.49
2022-11-23T03:24:20.368Z,7.99
2022-11-23T03:25:22.629Z,8.42
2022-11-23T03:26:25.826Z,8.78
2022-11-23T03:27:35.003Z,9.02
2022-11-23T03:28:37.972Z,8.82
2022-11-23T03:29:39.903Z,8.37
2022-11-23T03:30:45.479Z,7.84
2022-11-23T03:31:47.251Z,7.37
2022-11-23T03:32:50.069Z,6.95
2022-11-23T03:33:52.625Z,6.59
2022-11-23T03:34:54.450Z,6.27
2022-11-23T03:35:56.565Z,6.03
2022-11-23T03:37:03.150Z,6.16
2022-11-23T03:38:06.141Z,6.63
2022-11-23T03:39:08.188Z,7.20
2022-11-23T03:40:28.282Z,7.88
2022-11-23T03:41:48.538Z,8.44
2022-11-23T03:42:50.342Z,8.79
2022-11-23T03:43:52.237Z,9.05
2022-11-23T03:44:54.000Z,8.96
2022-11-23T03:45:55.726Z,8.56
2022-11-23T03:46:57.534Z,8.04
2022-11-23T03:47:59.538Z,7.56
2022-11-23T03:49:01.449Z,7.14
2022-11-23T03:50:03.486Z,6.78
2022-11-23T03:51:06.208Z,6.45
2022-11-23T03:52:07.982Z,6.17
2022-11-23T03:53:09.809Z,6.02
2022-11-23T03:54:12.211Z,6.28
2022-11-23T03:55:14.057Z,6.80
2022-11-23T03:56:15.845Z,7.36
2022-11-23T03:57:20.203Z,7.89
2022-11-23T03:58:22.592Z,8.34
2022-11-23T03:59:24.537Z,8.71
2022-11-23T04:00:28.046Z,8.98
2022-11-23T04:01:31.568Z,8.94
2022-11-23T04:02:36.637Z,8.53
2022-11-23T04:03:41.557Z,7.99
2022-11-23T04:04:49.245Z,7.46
2022-11-23T04:06:23.055Z,6.84
2022-11-23T04:07:32.608Z,6.46
2022-11-23T04:08:36.829Z,6.17
2022-11-23T04:09:42.004Z,5.96
2022-11-23T04:11:06.753Z,6.32
2022-11-23T04:12:13.345Z,6.88
2022-11-23T04:13:15.167Z,7.41
2022-11-23T04:14:17.515Z,7.88
2022-11-23T04:15:19.750Z,8.29
2022-11-23T04:16:21.547Z,8.64
2022-11-23T04:17:24.500Z,8.90
2022-11-23T04:18:26.243Z,8.91
2022-11-23T04:19:28.898Z,8.56
2022-11-23T04:20:31.029Z,8.03
2022-11-23T04:21:32.943Z,7.52
2022-11-23T04:22:34.751Z,7.06
2022-11-23T04:23:36.539Z,6.65
2022-11-23T04:24:38.543Z,6.31
2022-11-23T04:25:41.348Z,6.01
2022-11-23T04:26:43.251Z,5.99
2022-11-23T04:27:46.507Z,6.37
2022-11-23T04:28:48.654Z,6.92
2022-11-23T04:29:50.543Z,7.46
2022-11-23T04:30:52.591Z,7.93
2022-11-23T04:31:54.514Z,8.35
2022-11-23T04:32:56.803Z,8.69
2022-11-23T04:33:58.830Z,8.94
2022-11-23T04:35:01.036Z,8.86
2022-11-23T04:36:02.992Z,8.44
2022-11-23T04:37:06.824Z,7.91
2022-11-23T04:38:13.086Z,7.35
2022-11-23T04:39:14.846Z,6.90
2022-11-23T04:40:57.290Z,6.28
2022-11-23T04:41:59.701Z,5.97
2022-11-23T04:43:02.344Z,5.87
2022-11-23T04:44:06.598Z,6.21
2022-11-23T04:45:09.076Z,6.74
2022-11-23T04:46:11.909Z,7.29
2022-11-23T04:47:14.214Z,7.79
2022-11-23T04:48:15.985Z,8.21
2022-11-23T04:49:18.077Z,8.57
2022-11-23T04:50:19.831Z,8.85
2022-11-23T04:51:24.926Z,8.86
2022-11-23T04:52:27.717Z,8.49
2022-11-23T04:53:29.463Z,7.97
2022-11-23T04:54:31.395Z,7.48
2022-11-23T04:55:35.206Z,7.02
2022-11-23T04:56:37.264Z,6.62
2022-11-23T04:57:39.016Z,6.27
2022-11-23T04:58:41.160Z,5.98
2022-11-23T04:59:42.886Z,5.96
2022-11-23T05:00:44.755Z,6.34
2022-11-23T05:01:47.756Z,6.88
2022-11-23T05:03:09.473Z,7.55
2022-11-23T05:04:17.727Z,8.02
2022-11-23T05:05:20.853Z,8.44
2022-11-23T05:06:22.740Z,8.76
2022-11-23T05:07:24.755Z,9.01
2022-11-23T05:08:31.402Z,8.91
2022-11-23T05:09:49.002Z,8.36
2022-11-23T05:10:52.911Z,7.83
2022-11-23T05:11:54.709Z,7.36
2022-11-23T05:12:56.834Z,6.94
2022-11-23T05:13:58.572Z,6.56
2022-11-23T05:15:00.575Z,6.25
2022-11-23T05:16:07.320Z,6.08
2022-11-23T05:17:09.376Z,6.36
2022-11-23T05:18:12.355Z,6.88
2022-11-23T05:19:17.438Z,7.47
2022-11-23T05:20:19.608Z,7.96
2022-11-23T05:21:23.060Z,8.40
2022-11-23T05:22:25.065Z,8.76
2022-11-23T05:23:27.962Z,9.04
2022-11-23T05:24:30.572Z,9.12
2022-11-23T05:25:39.158Z,8.78
2022-11-23T05:26:42.951Z,8.26
2022-11-23T05:27:44.800Z,7.74
2022-11-23T05:28:46.744Z,7.27
2022-11-23T05:29:49.167Z,6.84
2022-11-23T05:30:51.019Z,6.46
2022-11-23T05:31:52.765Z,6.13
2022-11-23T05:32:54.582Z,5.86
2022-11-23T05:33:56.849Z,5.96
2022-11-23T05:35:08.787Z,6.46
2022-11-23T05:36:13.917Z,6.99
2022-11-23T05:37:16.333Z,7.50
2022-11-23T05:38:25.562Z,7.96
2022-11-23T05:39:27.632Z,8.31
2022-11-23T05:40:29.538Z,8.59
2022-11-23T05:41:32.704Z,8.77
2022-11-23T05:42:35.951Z,8.53
2022-11-23T05:43:43.818Z,8.00
2022-11-23T05:44:48.024Z,7.44
2022-11-23T05:45:54.890Z,6.89
2022-11-23T05:46:57.358Z,6.44
2022-11-23T05:47:59.666Z,6.05
2022-11-23T05:49:10.409Z,5.65
2022-11-23T05:50:12.806Z,5.44
2022-11-23T05:51:16.602Z,5.67
2022-11-23T05:52:20.050Z,6.17
2022-11-23T05:53:23.229Z,6.70
2022-11-23T05:54:28.956Z,7.22
2022-11-23T05:55:40.903Z,7.69
2022-11-23T05:56:43.149Z,8.01
2022-11-23T05:57:54.319Z,8.33
2022-11-23T05:58:56.675Z,8.47
2022-11-23T05:59:58.766Z,8.19
2022-11-23T06:01:14.410Z,7.58
2022-11-23T06:02:16.265Z,7.05
2022-11-23T06:03:18.226Z,6.57
2022-11-23T06:04:20.580Z,6.15
2022-11-23T06:05:22.344Z,5.78
2022-11-23T06:06:24.687Z,5.45
2022-11-23T06:07:26.658Z,5.21
2022-11-23T06:08:34.406Z,5.39
2022-11-23T06:09:36.394Z,5.86
2022-11-23T06:10:41.468Z,6.45
2022-11-23T06:11:44.649Z,6.97
2022-11-23T06:12:50.138Z,7.42
2022-11-23T06:13:52.762Z,7.79
2022-11-23T06:14:54.977Z,8.09
2022-11-23T06:15:58.339Z,8.33
2022-11-23T06:17:06.188Z,8.22
2022-11-23T06:18:14.279Z,7.72
2022-11-23T06:19:20.411Z,7.14
2022-11-23T06:20:22.367Z,6.62
2022-11-23T06:21:30.834Z,6.14
2022-11-23T06:22:32.711Z,5.76
2022-11-23T06:23:36.430Z,5.43
2022-11-23T06:24:38.512Z,5.18
2022-11-23T06:26:02.599Z,5.40
2022-11-23T06:27:07.999Z,5.98
2022-11-23T06:28:09.836Z,6.52
2022-11-23T06:29:17.246Z,7.04
2022-11-23T06:30:19.110Z,7.46
2022-11-23T06:31:21.544Z,7.80
2022-11-23T06:32:23.398Z,8.08
2022-11-23T06:33:25.151Z,8.30
2022-11-23T06:34:27.859Z,8.25
2022-11-23T06:35:29.724Z,7.83
2022-11-23T06:36:31.503Z,7.28
2022-11-23T06:37:33.325Z,6.75
2022-11-23T06:38:36.009Z,6.28
2022-11-23T06:39:59.466Z,5.74
2022-11-23T06:41:02.963Z,5.40
2022-11-23T06:42:36.728Z,5.23
2022-11-23T06:43:28.753Z,5.64
2022-11-23T06:44:30.531Z,6.16
2022-11-23T06:45:32.588Z,6.66
2022-11-23T06:46:36.714Z,7.13
2022-11-23T06:47:38.857Z,7.52
2022-11-23T06:48:45.821Z,7.86
2022-11-23T06:49:48.256Z,8.19
2022-11-23T06:50:59.127Z,8.34
2022-11-23T06:52:01.168Z,8.04
2022-11-23T06:53:03.084Z,7.55
2022-11-23T06:54:10.944Z,6.99
2022-11-23T06:55:12.838Z,6.52
2022-11-23T06:56:14.991Z,6.09
2022-11-23T06:57:17.103Z,5.70
2022-11-23T06:58:19.340Z,5.38
2022-11-23T06:59:21.495Z,5.22
2022-11-23T07:00:23.478Z,5.47
2022-11-23T07:01:25.476Z,5.97
2022-11-23T07:02:31.100Z,6.52
2022-11-23T07:03:33.339Z,6.99
2022-11-23T07:04:39.495Z,7.43
2022-11-23T07:05:43.241Z,7.80
2022-11-23T07:06:45.085Z,8.09
2022-11-23T07:07:55.242Z,8.36
2022-11-23T07:09:00.777Z,8.24
2022-11-23T07:10:13.721Z,7.70
2022-11-23T07:11:21.448Z,7.11
2022-11-23T07:12:23.520Z,6.60
2022-11-23T07:13:25.299Z,6.15
2022-11-23T07:14:27.071Z,5.77
2022-11-23T07:15:30.495Z,5.43
2022-11-23T07:16:32.467Z,5.29
2022-11-23T07:17:39.431Z,5.58
2022-11-23T07:18:41.180Z,6.11
2022-11-23T07:19:43.028Z,6.62
2022-11-23T07:20:45.528Z,7.08
2022-11-23T07:21:48.230Z,7.47
2022-11-23T07:23:05.838Z,7.79
2022-11-23T07:24:07.776Z,8.11
2022-11-23T07:25:11.436Z,8.33
2022-11-23T07:26:13.384Z,8.31
2022-11-23T07:27:18.025Z,7.93
2022-11-23T07:28:20.031Z,7.37
2022-11-23T07:29:21.799Z,6.84
2022-11-23T07:30:29.119Z,6.35
2022-11-23T07:31:31.635Z,5.89
2022-11-23T07:32:33.467Z,5.52
2022-11-23T07:33:35.521Z,5.27
2022-11-23T07:34:37.487Z,5.45
2022-11-23T07:35:41.339Z,5.93
2022-11-23T07:36:43.421Z,6.47
2022-11-23T07:37:46.066Z,6.99
2022-11-23T07:38:48.009Z,7.43
2022-11-23T07:39:57.795Z,7.80
2022-11-23T07:41:03.520Z,8.16
2022-11-23T07:42:34.477Z,8.53
2022-11-23T07:43:38.902Z,8.43
2022-11-23T07:44:42.351Z,7.96
2022-11-23T07:45:44.736Z,7.43
2022-11-23T07:46:53.522Z,6.89
2022-11-23T07:48:00.446Z,6.41
2022-11-23T07:49:02.368Z,6.00
2022-11-23T07:50:06.333Z,5.66
2022-11-23T07:51:08.260Z,5.56
2022-11-23T07:52:10.664Z,5.88
2022-11-23T07:53:12.475Z,6.38
2022-11-23T07:54:15.713Z,6.91
2022-11-23T07:55:17.853Z,7.37
2022-11-23T07:56:19.881Z,7.74
2022-11-23T07:57:21.629Z,8.07
2022-11-23T07:58:23.455Z,8.35
2022-11-23T07:59:25.165Z,8.58
2022-11-23T08:00:28.946Z,8.52
2022-11-23T08:01:31.623Z,8.07
2022-11-23T08:02:33.588Z,7.52
2022-11-23T08:03:35.803Z,6.99
2022-11-23T08:04:37.670Z,6.51
2022-11-23T08:05:39.454Z,6.11
2022-11-23T08:06:41.230Z,5.74
2022-11-23T08:07:45.084Z,5.50
2022-11-23T08:08:47.099Z,5.70
2022-11-23T08:09:48.837Z,6.19
2022-11-23T08:10:53.991Z,6.73
2022-11-23T08:11:56.324Z,7.28
2022-11-23T08:12:59.709Z,7.72
2022-11-23T08:14:01.457Z,8.07
2022-11-23T08:15:03.639Z,8.38
2022-11-23T08:16:05.727Z,8.63
2022-11-23T08:17:07.639Z,8.69
2022-11-23T08:18:09.597Z,8.38
2022-11-23T08:19:11.370Z,7.87
2022-11-23T08:20:13.466Z,7.36
2022-11-23T08:21:15.187Z,6.89
2022-11-23T08:22:16.971Z,6.48
2022-11-23T08:23:20.431Z,6.11
2022-11-23T08:24:22.582Z,5.79
2022-11-23T08:25:29.424Z,5.65
2022-11-23T08:26:31.244Z,5.98
2022-11-23T08:27:33.018Z,6.50
2022-11-23T08:28:34.959Z,7.03
2022-11-23T08:29:36.809Z,7.49
2022-11-23T08:30:39.404Z,7.88
2022-11-23T08:31:41.209Z,8.23
2022-11-23T08:32:42.959Z,8.52
2022-11-23T08:33:45.211Z,8.73
2022-11-23T08:34:47.014Z,8.59
2022-11-23T08:35:48.776Z,8.14
2022-11-23T08:36:50.506Z,7.61
2022-11-23T08:37:52.292Z,7.10
2022-11-23T08:38:54.425Z,6.63
2022-11-23T08:39:56.486Z,6.24
2022-11-23T08:41:00.202Z,5.91
2022-11-23T08:42:02.112Z,5.60
2022-11-23T08:43:04.661Z,5.56
2022-11-23T08:44:09.868Z,5.92
2022-11-23T08:45:11.927Z,6.47
2022-11-23T08:46:14.136Z,7.00
2022-11-23T08:47:16.148Z,7.49
2022-11-23T08:48:17.985Z,7.90
2022-11-23T08:49:19.923Z,8.26
2022-11-23T08:50:21.979Z,8.58
2022-11-23T08:51:23.761Z,8.73
2022-11-23T08:52:26.188Z,8.52
2022-11-23T08:53:28.025Z,8.05
2022-11-23T08:54:30.485Z,7.54
2022-11-23T08:55:32.648Z,7.05
2022-11-23T08:56:34.496Z,6.63
2022-11-23T08:57:36.674Z,6.27
2022-11-23T08:58:38.477Z,5.97
2022-11-23T08:59:40.431Z,5.71
2022-11-23T09:00:42.312Z,5.78
2022-11-23T09:01:45.556Z,6.21
2022-11-23T09:02:47.699Z,6.79
2022-11-23T09:03:49.742Z,7.32
2022-11-23T09:04:51.688Z,7.79
2022-11-23T09:05:54.739Z,8.18
2022-11-23T09:06:57.386Z,8.54
2022-11-23T09:08:02.240Z,8.82
2022-11-23T09:09:03.963Z,8.80
2022-11-23T09:10:06.705Z,8.42
2022-11-23T09:11:12.361Z,7.92
2022-11-23T09:12:14.119Z,7.41
2022-11-23T09:13:15.832Z,6.99
2022-11-23T09:14:17.597Z,6.63
2022-11-23T09:15:20.383Z,6.30
2022-11-23T09:16:22.450Z,6.01
2022-11-23T09:17:24.212Z,5.96
2022-11-23T09:18:28.168Z,6.33
2022-11-23T09:19:30.059Z,6.88
2022-11-23T09:20:31.931Z,7.42
2022-11-23T09:21:36.138Z,7.91
2022-11-23T09:22:39.027Z,8.36
2022-11-23T09:23:40.813Z,8.72
2022-11-23T09:24:42.559Z,9.02
2022-11-23T09:25:47.790Z,9.03
2022-11-23T09:26:49.675Z,8.66
2022-11-23T09:27:58.214Z,8.17
2022-11-23T09:29:00.093Z,7.63
2022-11-23T09:30:02.444Z,7.19
2022-11-23T09:31:05.129Z,6.82
2022-11-23T09:32:07.016Z,6.50
2022-11-23T09:33:09.130Z,6.23
2022-11-23T09:34:14.126Z,6.09
2022-11-23T09:35:16.015Z,6.38
2022-11-23T09:36:17.798Z,6.91
2022-11-23T09:37:19.531Z,7.48
2022-11-23T09:38:38.309Z,8.00
2022-11-23T09:39:43.571Z,8.58
2022-11-23T09:40:45.321Z,8.93
2022-11-23T09:42:13.394Z,9.19
2022-11-23T09:43:36.409Z,8.94
2022-11-23T09:45:08.802Z,8.33
2022-11-23T09:46:36.967Z,7.64
2022-11-23T09:47:51.528Z,7.11
2022-11-23T09:49:35.599Z,6.73
2022-11-23T09:50:55.071Z,6.30
2022-11-23T09:51:57.155Z,6.26
2022-11-23T09:53:07.712Z,6.66
2022-11-23T09:54:32.943Z,7.32
2022-11-23T09:55:43.612Z,8.10
2022-11-23T09:56:50.957Z,8.68
2022-11-23T09:58:01.537Z,9.11
2022-11-23T09:59:23.745Z,9.49
2022-11-23T10:00:38.943Z,9.51
2022-11-23T10:01:41.269Z,9.08
2022-11-23T10:02:43.860Z,8.64
2022-11-23T10:03:49.032Z,8.24
2022-11-23T10:04:54.027Z,7.86
2022-11-23T10:06:21.959Z,7.57
2022-11-23T10:07:54.794Z,7.21
2022-11-23T10:09:25.153Z,6.92
2022-11-23T10:10:56.852Z,7.09
2022-11-23T10:12:27.780Z,7.91
2022-11-23T10:13:41.763Z,8.80
2022-11-23T10:15:09.863Z,9.40
2022-11-23T10:16:36.629Z,9.96
2022-11-23T10:17:53.648Z,9.94
2022-11-23T10:19:21.299Z,9.47
2022-11-23T10:20:41.991Z,8.86
2022-11-23T10:22:03.905Z,8.37
2022-11-23T10:23:31.172Z,7.96
2022-11-23T10:24:44.100Z,7.60
2022-11-23T10:25:52.489Z,7.34
2022-11-23T10:26:54.312Z,7.14
2022-11-23T10:28:06.712Z,7.00
2022-11-23T10:29:22.875Z,7.18
2022-11-23T10:30:24.689Z,7.85
2022-11-23T10:31:29.980Z,8.52
2022-11-23T10:32:46.631Z,9.16
2022-11-23T10:34:11.833Z,9.79
2022-11-23T10:35:18.165Z,10.21
2022-11-23T10:36:20.025Z,10.03
2022-11-23T10:37:21.928Z,9.68
2022-11-23T10:38:28.693Z,9.31
2022-11-23T10:39:31.705Z,8.96
2022-11-23T10:40:35.626Z,8.68
2022-11-23T10:41:37.413Z,8.45
2022-11-23T10:42:47.281Z,8.24
2022-11-23T10:44:18.783Z,8.05
2022-11-23T10:45:23.988Z,7.83
2022-11-23T10:46:46.063Z,7.70
2022-11-23T10:47:58.984Z,7.54
2022-11-23T10:49:23.331Z,7.41
2022-11-23T10:50:37.712Z,7.33
2022-11-23T10:51:40.291Z,7.76
2022-11-23T10:52:52.026Z,8.38
2022-11-23T10:54:04.944Z,9.11
2022-11-23T10:55:09.268Z,9.78
2022-11-23T10:56:14.614Z,10.25
2022-11-23T10:57:33.059Z,10.46
2022-11-23T10:58:44.648Z,10.19
2022-11-23T11:00:17.532Z,9.75
2022-11-23T11:01:24.368Z,9.21
2022-11-23T11:02:26.826Z,8.89
2022-11-23T11:03:33.274Z,8.61
2022-11-23T11:04:35.408Z,8.35
2022-11-23T11:07:22.562Z,7.91
2022-11-23T11:08:31.119Z,7.75
2022-11-23T11:09:33.347Z,7.61
2022-11-23T11:10:42.704Z,7.52
2022-11-23T11:11:52.295Z,7.39
2022-11-23T11:12:54.096Z,7.36
2022-11-23T11:14:18.629Z,7.70
2022-11-23T11:15:20.458Z,8.52
2022-11-23T11:16:30.936Z,9.11
2022-11-23T11:17:34.831Z,9.68
2022-11-23T11:18:38.139Z,10.06
2022-11-23T11:19:39.892Z,10.07
2022-11-23T11:20:45.635Z,9.75
2022-11-23T11:21:47.858Z,9.29
2022-11-23T11:22:49.775Z,8.87
2022-11-23T11:24:19.914Z,8.50
2022-11-23T11:25:32.672Z,8.04
2022-11-23T11:26:36.071Z,7.74
2022-11-23T11:27:37.866Z,7.51
2022-11-23T11:28:47.166Z,7.31
2022-11-23T11:29:53.314Z,7.10
2022-11-23T11:31:25.113Z,6.93
2022-11-23T11:32:54.627Z,6.72
2022-11-23T11:34:08.602Z,6.90
2022-11-23T11:35:34.452Z,7.55
2022-11-23T11:36:46.060Z,8.40
2022-11-23T11:37:51.934Z,9.01
2022-11-23T11:39:17.762Z,9.48
2022-11-23T11:40:34.540Z,9.75
2022-11-23T11:41:38.295Z,9.40
2022-11-23T11:43:10.431Z,8.96
2022-11-23T11:44:26.092Z,8.32
2022-11-23T11:45:46.318Z,7.88
2022-11-23T11:47:20.020Z,7.48
2022-11-23T11:48:39.395Z,7.16
2022-11-23T11:49:48.131Z,6.93
2022-11-23T11:50:56.496Z,6.76
2022-11-23T11:52:15.271Z,6.78
2022-11-23T11:53:23.010Z,7.33
2022-11-23T11:54:51.952Z,8.00
2022-11-23T11:55:59.057Z,8.86
2022-11-23T11:57:12.063Z,9.37
2022-11-23T11:58:18.326Z,9.72
2022-11-23T11:59:31.314Z,9.58
2022-11-23T12:00:38.646Z,9.11
2022-11-23T12:01:58.977Z,8.62
2022-11-23T12:03:14.631Z,8.13
2022-11-23T12:04:25.858Z,7.73
2022-11-23T12:05:39.380Z,7.44
2022-11-23T12:06:54.666Z,7.20
2022-11-23T12:08:22.095Z,7.00
2022-11-23T12:09:31.943Z,6.78
2022-11-23T12:10:53.260Z,6.63
2022-11-23T12:11:55.134Z,6.70
2022-11-23T12:12:57.280Z,7.16
2022-11-23T12:14:03.516Z,7.80
2022-11-23T12:15:26.340Z,8.47
2022-11-23T12:17:17.024Z,9.18
2022-11-23T12:18:42.410Z,9.77
2022-11-23T12:19:56.347Z,9.47
2022-11-23T12:21:05.812Z,8.98
2022-11-23T12:22:42.684Z,8.54
2022-11-23T12:24:05.211Z,7.99
2022-11-23T12:25:24.597Z,7.63
2022-11-23T12:26:52.130Z,7.34
2022-11-23T12:28:20.523Z,7.06
2022-11-23T12:29:40.585Z,6.83
2022-11-23T12:31:06.473Z,6.65
2022-11-23T12:32:38.966Z,6.93
2022-11-23T12:34:19.498Z,7.79
2022-11-23T12:35:41.855Z,8.74
2022-11-23T12:37:23.627Z,9.37
2022-11-23T12:38:44.432Z,9.65
2022-11-23T12:39:57.709Z,9.23
2022-11-23T12:41:22.617Z,8.71
2022-11-23T12:42:37.814Z,8.15
2022-11-23T12:44:24.653Z,7.73
2022-11-23T12:45:51.757Z,7.26
2022-11-23T12:47:35.193Z,6.95
2022-11-23T12:48:45.128Z,6.64
2022-11-23T12:50:16.535Z,6.45
2022-11-23T12:52:09.147Z,6.60
2022-11-23T12:53:16.692Z,7.64
2022-11-23T12:54:49.356Z,8.30
2022-11-23T12:56:08.451Z,9.05
2022-11-23T12:57:22.914Z,9.48
2022-11-23T12:58:33.667Z,9.35
2022-11-23T12:59:45.093Z,8.89
2022-11-23T13:00:56.615Z,8.38
2022-11-23T13:02:13.436Z,7.93
2022-11-23T13:03:19.755Z,7.50
2022-11-23T13:05:02.944Z,7.20
2022-11-23T13:07:12.777Z,6.80
2022-11-23T13:08:25.707Z,6.40
2022-11-23T13:09:56.377Z,6.39
2022-11-23T13:11:30.721Z,7.05
2022-11-23T13:13:11.081Z,7.96
2022-11-23T13:14:46.639Z,8.80
2022-11-23T13:16:24.652Z,9.27
2022-11-23T13:18:16.163Z,8.91
2022-11-23T13:19:39.403Z,8.10
2022-11-23T13:21:21.408Z,7.55
2022-11-23T13:22:29.258Z,6.99
2022-11-23T13:23:38.779Z,6.68
2022-11-23T13:25:01.825Z,6.42
2022-11-23T13:26:23.060Z,6.16
2022-11-23T13:27:55.695Z,6.00
2022-11-23T13:29:00.802Z,6.54
2022-11-23T13:30:51.927Z,7.17
2022-11-23T13:32:33.007Z,8.23
2022-11-23T13:33:38.803Z,8.96
2022-11-23T13:34:46.345Z,9.23
2022-11-23T13:35:54.094Z,9.04
2022-11-23T13:37:16.304Z,8.58
2022-11-23T13:38:24.391Z,7.98
2022-11-23T13:39:44.211Z,7.56
2022-11-23T13:40:46.451Z,7.14
2022-11-23T13:41:54.388Z,6.87
2022-11-23T13:43:20.483Z,6.60
2022-11-23T13:44:26.811Z,6.30
2022-11-23T13:45:36.847Z,6.11
2022-11-23T13:46:39.171Z,6.27
2022-11-23T13:47:43.867Z,6.77
2022-11-23T13:48:56.891Z,7.38
2022-11-23T13:50:19.547Z,8.03
2022-11-23T13:51:26.534Z,8.63
2022-11-23T13:52:31.154Z,9.00
2022-11-23T13:53:43.029Z,9.15
2022-11-23T13:55:07.501Z,8.83
2022-11-23T13:56:23.431Z,8.16
2022-11-23T13:57:25.278Z,7.63
2022-11-23T13:58:26.962Z,7.23
2022-11-23T13:59:33.436Z,6.90
2022-11-23T14:00:49.071Z,6.59
2022-11-23T14:01:59.987Z,6.29
2022-11-23T14:03:43.225Z,6.05
2022-11-23T14:04:49.810Z,6.17
2022-11-23T14:06:01.561Z,6.73
2022-11-23T14:07:25.372Z,7.40
2022-11-23T14:08:29.044Z,8.13
2022-11-23T14:09:45.141Z,8.58
2022-11-23T14:10:50.531Z,9.00
2022-11-23T14:12:12.246Z,9.12
2022-11-23T14:13:25.180Z,8.69
2022-11-23T14:14:36.551Z,8.09
2022-11-23T14:15:45.914Z,7.54
2022-11-23T14:17:18.968Z,7.07
2022-11-23T14:18:45.775Z,6.54
2022-11-23T14:20:09.437Z,6.15
2022-11-23T14:21:29.729Z,5.85
2022-11-23T14:22:37.284Z,6.04
2022-11-23T14:24:22.813Z,6.60
2022-11-23T14:25:35.193Z,7.58
2022-11-23T14:26:49.891Z,8.15
2022-11-23T14:28:25.885Z,8.61
2022-11-23T14:29:56.956Z,8.99
2022-11-23T14:31:23.504Z,8.59
2022-11-23T14:32:37.128Z,7.92
2022-11-23T14:34:01.088Z,7.39
2022-11-23T14:35:02.817Z,6.87
2022-11-23T14:36:43.607Z,6.53
2022-11-23T14:38:01.507Z,6.08
2022-11-23T14:39:25.317Z,5.85
2022-11-23T14:40:35.755Z,6.20
2022-11-23T14:41:42.469Z,6.83
2022-11-23T14:42:52.154Z,7.46
2022-11-23T14:43:55.481Z,8.02
2022-11-23T14:45:04.720Z,8.47
2022-11-23T14:46:20.031Z,8.87
2022-11-23T14:47:31.606Z,8.96
2022-11-23T14:48:35.866Z,8.55
2022-11-23T14:49:49.792Z,8.04
2022-11-23T14:50:57.787Z,7.49
2022-11-23T14:52:03.071Z,7.04
2022-11-23T14:53:07.134Z,6.66
2022-11-23T14:54:11.783Z,6.36
2022-11-23T14:55:29.590Z,6.09
2022-11-23T14:56:39.237Z,5.83
2022-11-23T14:57:46.521Z,6.04
2022-11-23T14:58:50.445Z,6.59
2022-11-23T15:00:03.073Z,7.19
2022-11-23T15:01:21.589Z,7.85
2022-11-23T15:02:29.665Z,8.41
2022-11-23T15:03:50.125Z,8.82
2022-11-23T15:05:03.097Z,8.92
2022-11-23T15:06:16.562Z,8.49
2022-11-23T15:07:24.138Z,7.92
2022-11-23T15:08:39.556Z,7.42